Time;durP1;ratioP1;P1;durP2;ratioP2;P2;SDS_P1;SDS_P2;PMS_P1;PMS_P2;Temp;Humidity;BMP_temperature;BMP_pressure;BME280_temperature;BME280_humidity;BME280_pressure;Samples;Min_cycle;Max_cycle;Signal;HPM_P1;HPM_P2
2022/05/08 00:00:38;;;;;;;;;23.50;18.75;;;;;;;;5067704;28;46440;-76
2022/05/08 00:03:04;;;;;;;;;17.00;15.50;;;;;;;;5055821;28;45293;-76
2022/05/08 00:05:29;;;;;;;;;18.25;15.00;;;;;;;;5057889;28;45371;-76
2022/05/08 00:07:54;;;;;;;;;23.00;19.00;;;;;;;;5058601;28;45442;-76
2022/05/08 00:10:19;;;;;;;;;18.50;18.50;;;;;;;;5057415;28;47509;-76
2022/05/08 00:12:45;;;;;;;;;20.50;18.75;;;;;;;;5057707;28;45443;-76
2022/05/08 00:15:10;;;;;;;;;14.25;14.00;;;;;;;;5051493;27;45398;-76
2022/05/08 00:17:36;;;;;;;;;18.50;15.25;;;;;;;;5055953;28;45421;-76
2022/05/08 00:20:02;;;;;;;;;23.00;20.00;;;;;;;;5050240;28;47113;-76
2022/05/08 00:22:27;;;;;;;;;17.75;17.00;;;;;;;;5042743;28;45497;-77
2022/05/08 00:24:53;;;;;;;;;14.50;14.50;;;;;;;;5054296;28;45487;-77
2022/05/08 00:27:19;;;;;;;;;27.25;21.75;;;;;;;;5053375;28;45427;-75
2022/05/08 00:29:44;;;;;;;;;19.75;18.75;;;;;;;;5052159;28;46062;-75
2022/05/08 00:32:09;;;;;;;;;20.00;16.25;;;;;;;;5052431;28;45403;-76
2022/05/08 00:34:34;;;;;;;;;20.50;16.75;;;;;;;;5032654;28;45485;-73
2022/05/08 00:36:59;;;;;;;;;17.50;16.25;;;;;;;;5052036;28;45498;-78
2022/05/08 00:39:25;;;;;;;;;23.25;18.00;;;;;;;;5051102;28;47267;-78
2022/05/08 00:41:50;;;;;;;;;19.25;17.75;;;;;;;;5032620;28;45481;-76
2022/05/08 00:44:15;;;;;;;;;23.50;18.25;;;;;;;;5052850;28;45412;-77
2022/05/08 00:46:41;;;;;;;;;19.25;16.00;;;;;;;;5049931;28;45470;-77
2022/05/08 00:49:06;;;;;;;;;21.00;16.25;;;;;;;;5052009;28;45502;-77
2022/05/08 00:51:32;;;;;;;;;20.00;15.25;;;;;;;;5051036;28;45463;-77
2022/05/08 00:54:00;;;;;;;;;15.00;14.50;;;;;;;;5048015;28;45504;-77
2022/05/08 00:56:25;;;;;;;;;21.25;19.75;;;;;;;;5051475;28;45414;-75
2022/05/08 00:58:52;;;;;;;;;15.00;13.50;;;;;;;;5051565;28;46248;-77
2022/05/08 01:01:17;;;;;;;;;16.75;13.25;;;;;;;;5049593;28;45522;-77
2022/05/08 01:03:43;;;;;;;;;16.25;15.50;;;;;;;;5052492;28;45785;-79
2022/05/08 01:06:12;;;;;;;;;21.00;20.00;;;;;;;;5050253;28;45475;-80
2022/05/08 01:08:39;;;;;;;;;18.00;17.00;;;;;;;;5050833;28;46953;-81
2022/05/08 01:11:04;;;;;;;;;18.25;16.25;;;;;;;;5049196;28;45553;-80
2022/05/08 01:13:30;;;;;;;;;23.50;19.00;;;;;;;;5052101;28;45331;-80
2022/05/08 01:15:56;;;;;;;;;20.75;19.25;;;;;;;;5051974;28;45380;-79
2022/05/08 01:18:21;;;;;;;;;22.50;19.00;;;;;;;;5052138;28;45290;-80
2022/05/08 01:20:47;;;;;;;;;16.75;14.00;;;;;;;;5049502;28;47027;-79
2022/05/08 01:23:13;;;;;;;;;17.25;14.50;;;;;;;;5056739;28;45294;-79
2022/05/08 01:25:51;;;;;;;;;16.00;13.00;;;;;;;;5054622;28;45524;-79
2022/05/08 01:28:17;;;;;;;;;21.50;18.75;;;;;;;;5053349;28;47894;-78
2022/05/08 01:30:43;;;;;;;;;21.75;18.25;;;;;;;;5037555;28;45423;-79
2022/05/08 01:33:08;;;;;;;;;18.75;15.25;;;;;;;;5054084;28;45475;-79
2022/05/08 01:35:35;;;;;;;;;17.00;15.00;;;;;;;;5055060;28;45477;-79
2022/05/08 01:38:00;;;;;;;;;18.00;15.50;;;;;;;;5057078;28;47083;-80
2022/05/08 01:40:25;;;;;;;;;20.75;17.25;;;;;;;;5050348;28;45235;-80
2022/05/08 01:42:51;;;;;;;;;22.25;18.50;;;;;;;;5056553;28;45301;-80
2022/05/08 01:45:16;;;;;;;;;18.75;15.00;;;;;;;;5055097;28;45276;-80
2022/05/08 01:50:25;;;;;;;;;18.25;14.75;;;;;;;;5055982;28;45318;-80
2022/05/08 01:52:51;;;;;;;;;20.75;16.50;;;;;;;;5055627;28;45346;-80
2022/05/08 01:55:16;;;;;;;;;20.50;19.00;;;;;;;;5054449;28;45238;-80
2022/05/08 01:57:42;;;;;;;;;25.25;20.75;;;;;;;;5055891;28;45363;-80
2022/05/08 02:00:07;;;;;;;;;21.00;19.50;;;;;;;;5050892;28;45301;-80
2022/05/08 02:02:33;;;;;;;;;27.25;20.50;;;;;;;;5055379;28;45700;-80
2022/05/08 02:04:58;;;;;;;;;25.75;20.50;;;;;;;;5055609;28;45592;-80
2022/05/08 02:07:24;;;;;;;;;22.25;19.75;;;;;;;;5064270;28;46281;-80
2022/05/08 02:09:49;;;;;;;;;27.75;26.75;;;;;;;;5059311;28;45334;-78
2022/05/08 02:12:14;;;;;;;;;28.50;22.75;;;;;;;;5055890;28;45406;-79
2022/05/08 02:14:41;;;;;;;;;28.00;26.50;;;;;;;;5054576;28;45308;-79
2022/05/08 02:17:07;;;;;;;;;25.50;24.00;;;;;;;;5056140;28;46324;-79
2022/05/08 02:19:32;;;;;;;;;28.50;23.00;;;;;;;;5053822;28;48041;-79
2022/05/08 02:21:57;;;;;;;;;23.50;22.25;;;;;;;;5054752;28;45513;-81
2022/05/08 02:24:22;;;;;;;;;25.50;24.75;;;;;;;;5055812;28;45517;-81
2022/05/08 02:26:47;;;;;;;;;30.50;23.25;;;;;;;;5054319;28;45308;-80
2022/05/08 02:29:12;;;;;;;;;26.25;25.25;;;;;;;;5055693;28;45445;-80
2022/05/08 02:31:38;;;;;;;;;25.75;22.75;;;;;;;;5053754;28;45383;-80
2022/05/08 02:34:03;;;;;;;;;28.75;25.75;;;;;;;;5053366;28;45351;-81
2022/05/08 02:36:28;;;;;;;;;21.75;20.75;;;;;;;;5056983;28;46044;-81
2022/05/08 02:38:53;;;;;;;;;29.50;23.25;;;;;;;;5054553;28;45401;-79
2022/05/08 02:41:18;;;;;;;;;27.50;25.00;;;;;;;;5053504;28;45273;-79
2022/05/08 02:43:43;;;;;;;;;30.50;24.50;;;;;;;;5055010;28;45274;-79
2022/05/08 02:46:09;;;;;;;;;33.25;28.00;;;;;;;;5053954;28;47064;-79
2022/05/08 02:48:34;;;;;;;;;38.75;29.00;;;;;;;;5054348;28;45570;-80
2022/05/08 02:51:00;;;;;;;;;31.50;29.50;;;;;;;;5053441;28;45260;-79
2022/05/08 02:53:25;;;;;;;;;34.75;30.25;;;;;;;;5055740;28;45336;-79
2022/05/08 02:58:34;;;;;;;;;32.00;26.50;;;;;;;;5051580;28;45363;-78
2022/05/08 03:01:05;;;;;;;;;38.00;31.75;;;;;;;;5053113;28;45333;-80
2022/05/08 03:03:30;;;;;;;;;34.50;31.00;;;;;;;;5051215;28;45438;-80
2022/05/08 03:05:56;;;;;;;;;31.00;29.00;;;;;;;;5052019;28;46003;-79
2022/05/08 03:08:21;;;;;;;;;36.25;32.00;;;;;;;;5056308;28;45472;-80
2022/05/08 03:13:32;;;;;;;;;41.25;34.50;;;;;;;;5053401;28;45482;-80
2022/05/08 03:15:58;;;;;;;;;36.75;32.00;;;;;;;;5053077;28;47269;-80
2022/05/08 03:18:23;;;;;;;;;42.75;36.50;;;;;;;;5051802;28;45466;-80
2022/05/08 03:20:48;;;;;;;;;42.50;33.25;;;;;;;;5051845;28;45501;-80
2022/05/08 03:23:17;;;;;;;;;44.75;33.50;;;;;;;;5048843;28;45811;-79
2022/05/08 03:25:42;;;;;;;;;44.00;32.75;;;;;;;;5050226;28;46023;-79
2022/05/08 03:28:08;;;;;;;;;44.25;34.75;;;;;;;;5046922;28;45785;-80
2022/05/08 03:30:33;;;;;;;;;44.75;36.00;;;;;;;;5041639;28;45415;-80
2022/05/08 03:32:58;;;;;;;;;46.25;38.50;;;;;;;;5050979;28;45623;-80
2022/05/08 03:35:24;;;;;;;;;44.75;36.50;;;;;;;;5069229;27;45378;-80
2022/05/08 03:37:49;;;;;;;;;44.75;36.75;;;;;;;;5059404;28;45476;-80
2022/05/08 03:40:14;;;;;;;;;44.50;36.75;;;;;;;;5065853;28;45253;-80
2022/05/08 03:42:41;;;;;;;;;39.50;37.75;;;;;;;;5070741;27;45236;-80
2022/05/08 03:45:06;;;;;;;;;44.50;37.50;;;;;;;;5069570;27;46101;-80
2022/05/08 03:47:32;;;;;;;;;47.00;39.00;;;;;;;;5074716;28;45316;-80
2022/05/08 03:49:57;;;;;;;;;51.25;42.50;;;;;;;;5068184;28;45436;-80
2022/05/08 03:52:22;;;;;;;;;48.75;39.25;;;;;;;;5067106;28;45343;-79
2022/05/08 03:54:47;;;;;;;;;49.25;39.25;;;;;;;;5082854;27;46356;-79
2022/05/08 03:57:12;;;;;;;;;43.75;37.50;;;;;;;;5070878;28;45462;-78
2022/05/08 03:59:37;;;;;;;;;50.25;40.75;;;;;;;;5061400;28;45338;-79
2022/05/08 04:02:03;;;;;;;;;42.50;35.00;;;;;;;;5059625;28;45443;-80
2022/05/08 04:04:28;;;;;;;;;46.50;39.75;;;;;;;;5059769;28;46835;-80
2022/05/08 04:06:53;;;;;;;;;37.75;35.75;;;;;;;;5058975;28;45770;-80
2022/05/08 04:09:18;;;;;;;;;48.25;39.25;;;;;;;;5057800;28;45304;-80
2022/05/08 04:11:43;;;;;;;;;45.50;37.00;;;;;;;;5071009;28;45594;-80
2022/05/08 04:14:09;;;;;;;;;54.50;42.75;;;;;;;;5060633;28;46865;-80
2022/05/08 04:16:35;;;;;;;;;46.50;40.25;;;;;;;;5058574;28;45403;-79
2022/05/08 04:19:00;;;;;;;;;49.00;39.25;;;;;;;;5061241;28;45557;-79
2022/05/08 04:21:26;;;;;;;;;51.25;41.50;;;;;;;;5058594;28;45550;-80
2022/05/08 04:26:34;;;;;;;;;51.75;39.50;;;;;;;;5069786;28;45331;-79
2022/05/08 04:29:00;;;;;;;;;51.00;42.50;;;;;;;;5057772;28;45499;-79
2022/05/08 04:31:25;;;;;;;;;52.00;42.75;;;;;;;;5058590;28;45786;-78
2022/05/08 04:33:51;;;;;;;;;55.00;42.50;;;;;;;;5057893;28;45273;-79
2022/05/08 04:36:16;;;;;;;;;49.50;42.00;;;;;;;;5057476;27;45541;-79
2022/05/08 04:38:42;;;;;;;;;51.25;43.00;;;;;;;;5054522;28;45414;-79
2022/05/08 04:41:07;;;;;;;;;50.50;40.00;;;;;;;;5073550;28;45516;-78
2022/05/08 04:43:32;;;;;;;;;48.25;40.00;;;;;;;;5059294;28;45489;-78
2022/05/08 04:45:57;;;;;;;;;49.25;41.00;;;;;;;;5058077;28;45547;-78
2022/05/08 04:48:23;;;;;;;;;53.75;42.75;;;;;;;;5058294;28;45439;-79
2022/05/08 04:50:48;;;;;;;;;49.25;40.25;;;;;;;;5053496;28;45712;-79
2022/05/08 04:53:13;;;;;;;;;47.75;39.50;;;;;;;;5059346;27;45506;-78
2022/05/08 04:55:38;;;;;;;;;46.00;39.75;;;;;;;;5057599;28;45496;-78
2022/05/08 04:58:03;;;;;;;;;53.25;44.25;;;;;;;;5058039;28;45469;-80
2022/05/08 05:00:29;;;;;;;;;53.00;41.50;;;;;;;;5066028;28;45439;-80
2022/05/08 05:02:54;;;;;;;;;49.50;39.75;;;;;;;;5053818;28;45447;-80
2022/05/08 05:05:20;;;;;;;;;55.50;45.00;;;;;;;;5059865;28;45463;-80
2022/05/08 05:07:45;;;;;;;;;50.50;41.25;;;;;;;;5058253;28;45571;-80
2022/05/08 05:10:11;;;;;;;;;50.00;40.50;;;;;;;;5058202;28;45305;-80
2022/05/08 05:12:36;;;;;;;;;50.25;42.00;;;;;;;;5057502;28;46057;-80
2022/05/08 05:15:02;;;;;;;;;57.50;44.25;;;;;;;;5052945;28;45329;-80
2022/05/08 05:17:27;;;;;;;;;43.50;36.00;;;;;;;;5058134;28;45367;-80
2022/05/08 05:19:52;;;;;;;;;56.75;44.25;;;;;;;;5058578;28;45344;-80
2022/05/08 05:22:21;;;;;;;;;53.50;42.75;;;;;;;;5057743;28;46249;-80
2022/05/08 05:24:46;;;;;;;;;55.25;44.50;;;;;;;;5056840;28;45426;-79
2022/05/08 05:27:11;;;;;;;;;47.50;40.50;;;;;;;;5053837;28;45264;-79
2022/05/08 05:29:37;;;;;;;;;49.25;41.00;;;;;;;;5070711;28;45464;-79
2022/05/08 05:32:02;;;;;;;;;59.50;45.50;;;;;;;;5057302;28;46144;-79
2022/05/08 05:34:27;;;;;;;;;52.50;41.50;;;;;;;;5057901;28;45340;-80
2022/05/08 05:36:55;;;;;;;;;56.00;42.50;;;;;;;;5058154;28;45438;-79
2022/05/08 05:39:21;;;;;;;;;48.75;40.75;;;;;;;;5039380;28;45396;-79
2022/05/08 05:41:46;;;;;;;;;58.00;42.00;;;;;;;;5064368;28;45315;-78
2022/05/08 05:44:12;;;;;;;;;53.00;40.25;;;;;;;;5072331;28;45375;-77
2022/05/08 05:49:21;;;;;;;;;49.50;41.00;;;;;;;;5060649;28;45434;-79
2022/05/08 05:51:46;;;;;;;;;54.00;44.25;;;;;;;;5057812;28;47026;-79
2022/05/08 05:54:11;;;;;;;;;49.75;40.50;;;;;;;;5059498;28;45502;-80
2022/05/08 05:56:37;;;;;;;;;52.50;42.75;;;;;;;;5071343;28;45261;-81
2022/05/08 05:59:02;;;;;;;;;52.50;42.00;;;;;;;;5059047;27;45221;-80
2022/05/08 06:01:27;;;;;;;;;51.75;42.25;;;;;;;;5055853;28;45586;-79
2022/05/08 06:03:53;;;;;;;;;52.00;42.25;;;;;;;;5056285;28;45554;-80
2022/05/08 06:06:18;;;;;;;;;52.50;42.50;;;;;;;;5069204;28;45375;-80
2022/05/08 06:08:43;;;;;;;;;48.00;36.75;;;;;;;;5056338;28;45523;-80
2022/05/08 06:11:08;;;;;;;;;40.25;36.25;;;;;;;;5061769;28;45281;-80
2022/05/08 06:13:33;;;;;;;;;55.25;43.00;;;;;;;;5060619;27;45493;-80
2022/05/08 06:15:59;;;;;;;;;55.50;41.50;;;;;;;;5060601;28;45624;-79
2022/05/08 06:18:24;;;;;;;;;53.50;41.75;;;;;;;;5057741;28;45510;-80
2022/05/08 06:20:49;;;;;;;;;54.25;40.75;;;;;;;;5070647;28;45552;-80
2022/05/08 06:23:15;;;;;;;;;48.00;39.25;;;;;;;;5062275;28;45475;-79
2022/05/08 06:25:41;;;;;;;;;51.75;41.50;;;;;;;;5060181;28;45548;-80
2022/05/08 06:28:07;;;;;;;;;50.25;39.00;;;;;;;;5060143;28;45419;-79
2022/05/08 06:30:32;;;;;;;;;47.50;37.50;;;;;;;;5060146;28;47167;-80
2022/05/08 06:32:57;;;;;;;;;42.75;36.50;;;;;;;;5037786;28;45466;-80
2022/05/08 06:35:22;;;;;;;;;39.00;28.75;;;;;;;;5061929;27;45475;-80
2022/05/08 06:37:47;;;;;;;;;50.00;39.25;;;;;;;;5065315;28;45473;-80
2022/05/08 06:40:13;;;;;;;;;38.75;35.25;;;;;;;;5058178;28;46164;-79
2022/05/08 06:42:38;;;;;;;;;45.25;34.25;;;;;;;;5059928;28;45521;-79
2022/05/08 06:45:04;;;;;;;;;49.75;40.50;;;;;;;;5057912;28;45332;-80
2022/05/08 06:47:29;;;;;;;;;41.25;36.25;;;;;;;;5060199;27;45570;-80
2022/05/08 06:49:54;;;;;;;;;46.50;38.50;;;;;;;;5058512;28;46801;-79
2022/05/08 06:52:19;;;;;;;;;47.25;37.25;;;;;;;;5067139;28;45493;-80
2022/05/08 06:54:44;;;;;;;;;47.00;38.50;;;;;;;;5068201;28;45352;-80
2022/05/08 06:57:12;;;;;;;;;54.25;39.75;;;;;;;;5058342;28;45365;-80
2022/05/08 07:02:21;;;;;;;;;50.25;42.00;;;;;;;;5067219;27;45482;-79
2022/05/08 07:04:46;;;;;;;;;46.50;36.00;;;;;;;;5066615;28;45501;-79
2022/05/08 07:07:13;;;;;;;;;49.25;40.75;;;;;;;;5045912;28;45391;-79
2022/05/08 07:09:38;;;;;;;;;55.75;42.25;;;;;;;;5058950;28;46251;-80
2022/05/08 07:12:03;;;;;;;;;49.50;40.25;;;;;;;;5055156;28;45380;-81
2022/05/08 07:14:28;;;;;;;;;48.50;39.75;;;;;;;;5073160;27;45414;-80
2022/05/08 07:16:53;;;;;;;;;45.50;39.00;;;;;;;;5069762;27;45412;-79
2022/05/08 07:19:19;;;;;;;;;43.00;36.75;;;;;;;;5064183;28;46332;-80
2022/05/08 07:21:44;;;;;;;;;45.00;37.00;;;;;;;;5041261;28;45462;-78
2022/05/08 07:24:09;;;;;;;;;50.00;41.25;;;;;;;;5057336;28;45302;-80
2022/05/08 07:26:36;;;;;;;;;51.25;39.75;;;;;;;;5057174;28;45503;-79
2022/05/08 07:29:01;;;;;;;;;44.25;37.75;;;;;;;;5063602;28;46362;-79
2022/05/08 07:31:26;;;;;;;;;49.50;38.75;;;;;;;;5068404;28;45460;-80
2022/05/08 07:36:12;;;;;;;;;48.00;39.50;;;;;;;;5063878;28;45360;-79
2022/05/08 07:36:37;;;;;;;;;52.50;40.25;;;;;;;;5068927;27;45462;-79
2022/05/08 07:39:02;;;;;;;;;48.25;41.00;;;;;;;;5055861;28;45574;-80
2022/05/08 07:41:28;;;;;;;;;52.75;40.75;;;;;;;;5059151;28;45291;-80
2022/05/08 07:43:53;;;;;;;;;46.50;39.50;;;;;;;;5058519;27;45289;-80
2022/05/08 07:46:18;;;;;;;;;45.50;38.00;;;;;;;;5059468;27;45551;-79
2022/05/08 07:48:45;;;;;;;;;41.75;36.25;;;;;;;;5059535;28;46133;-80
2022/05/08 07:51:10;;;;;;;;;45.25;38.25;;;;;;;;5056481;28;45361;-80
2022/05/08 07:53:35;;;;;;;;;51.00;40.00;;;;;;;;5057161;28;45473;-80
2022/05/08 07:56:01;;;;;;;;;44.25;39.25;;;;;;;;5060904;28;45387;-79
2022/05/08 07:58:32;;;;;;;;;47.50;39.25;;;;;;;;5058678;28;46246;-79
2022/05/08 08:00:57;;;;;;;;;48.00;39.00;;;;;;;;5062474;27;45419;-80
2022/05/08 08:03:24;;;;;;;;;56.25;43.50;;;;;;;;5058673;28;45453;-79
2022/05/08 08:05:49;;;;;;;;;52.25;39.75;;;;;;;;5053176;28;45306;-79
2022/05/08 08:08:16;;;;;;;;;54.00;38.25;;;;;;;;5059761;28;45513;-80
2022/05/08 08:10:41;;;;;;;;;51.00;41.00;;;;;;;;5056842;27;45450;-80
2022/05/08 08:13:06;;;;;;;;;43.50;38.25;;;;;;;;5059394;28;45763;-80
2022/05/08 08:15:32;;;;;;;;;42.75;36.75;;;;;;;;5056135;28;45440;-80
2022/05/08 08:17:57;;;;;;;;;48.00;37.50;;;;;;;;5054317;28;45510;-79
2022/05/08 08:20:22;;;;;;;;;48.00;37.75;;;;;;;;5041349;28;45461;-80
2022/05/08 08:22:48;;;;;;;;;51.00;38.00;;;;;;;;5064596;28;45486;-79
2022/05/08 08:25:14;;;;;;;;;46.75;38.00;;;;;;;;5058540;28;45543;-79
2022/05/08 08:27:39;;;;;;;;;48.50;37.00;;;;;;;;5057572;28;46631;-80
2022/05/08 08:30:04;;;;;;;;;45.75;38.50;;;;;;;;5054383;28;45584;-80
2022/05/08 08:32:33;;;;;;;;;46.75;38.50;;;;;;;;5069341;28;45443;-80
2022/05/08 08:34:58;;;;;;;;;57.00;41.00;;;;;;;;5058697;28;45502;-80
2022/05/08 08:37:23;;;;;;;;;50.25;41.00;;;;;;;;5029204;28;46172;-80
2022/05/08 08:39:49;;;;;;;;;42.00;37.25;;;;;;;;5065734;28;45316;-79
2022/05/08 08:42:30;;;;;;;;;51.00;39.25;;;;;;;;5056037;28;45539;-79
2022/05/08 08:47:53;;;;;;;;;43.75;37.00;;;;;;;;5054095;28;45504;-79
2022/05/08 08:50:19;;;;;;;;;46.75;38.75;;;;;;;;5066292;28;45557;-79
2022/05/08 08:52:48;;;;;;;;;56.00;45.50;;;;;;;;5065867;28;45382;-79
2022/05/08 08:55:14;;;;;;;;;57.00;43.00;;;;;;;;5062311;28;45495;-79
2022/05/08 08:57:40;;;;;;;;;48.75;40.00;;;;;;;;5057329;28;46986;-79
2022/05/08 09:00:05;;;;;;;;;52.75;43.00;;;;;;;;5052777;28;45438;-79
2022/05/08 09:02:31;;;;;;;;;52.00;40.25;;;;;;;;5057877;28;45524;-79
2022/05/08 09:04:57;;;;;;;;;48.75;40.50;;;;;;;;5066568;27;45409;-80
2022/05/08 09:07:36;;;;;;;;;50.25;40.25;;;;;;;;5060164;27;47346;-80
2022/05/08 09:10:07;;;;;;;;;52.25;41.00;;;;;;;;5061328;27;45494;-80
2022/05/08 09:12:32;;;;;;;;;51.75;42.50;;;;;;;;5057383;28;45431;-79
2022/05/08 09:14:58;;;;;;;;;52.75;41.25;;;;;;;;5054480;28;45479;-78
2022/05/08 09:17:23;;;;;;;;;50.25;39.50;;;;;;;;5066674;27;45385;-80
2022/05/08 09:19:48;;;;;;;;;53.50;39.75;;;;;;;;5066087;28;46959;-80
2022/05/08 09:22:17;;;;;;;;;46.50;37.25;;;;;;;;5067964;28;45374;-79
2022/05/08 09:24:52;;;;;;;;;52.75;38.75;;;;;;;;5065402;28;49226;-79
2022/05/08 09:27:18;;;;;;;;;53.75;40.25;;;;;;;;5054576;28;45486;-79
2022/05/08 09:29:44;;;;;;;;;43.50;37.75;;;;;;;;5070081;27;45386;-80
2022/05/08 09:32:09;;;;;;;;;58.25;42.25;;;;;;;;5058163;28;45385;-80
2022/05/08 09:34:53;;;;;;;;;53.50;42.00;;;;;;;;5055882;28;45282;-80
2022/05/08 09:37:18;;;;;;;;;55.50;42.00;;;;;;;;5056792;28;45444;-78
2022/05/08 09:39:43;;;;;;;;;50.00;40.75;;;;;;;;5059726;28;45435;-78
2022/05/08 09:42:28;;;;;;;;;54.75;43.00;;;;;;;;5068240;27;45476;-78
2022/05/08 09:45:10;;;;;;;;;52.50;43.25;;;;;;;;5049759;28;46699;-74
2022/05/08 09:47:42;;;;;;;;;51.25;39.50;;;;;;;;5065724;28;46933;-77
2022/05/08 09:50:09;;;;;;;;;53.50;40.50;;;;;;;;5060811;28;45372;-76
2022/05/08 09:52:36;;;;;;;;;50.25;39.25;;;;;;;;5065656;28;45424;-77
2022/05/08 09:55:01;;;;;;;;;41.00;33.00;;;;;;;;5067101;28;45314;-78
2022/05/08 09:57:27;;;;;;;;;56.25;44.75;;;;;;;;5059356;27;46041;-73
2022/05/08 09:59:52;;;;;;;;;53.00;40.50;;;;;;;;5055045;28;45590;-73
2022/05/08 10:02:17;;;;;;;;;55.25;45.25;;;;;;;;5061155;28;45298;-73
2022/05/08 10:04:43;;;;;;;;;58.00;42.25;;;;;;;;5059433;28;45395;-74
2022/05/08 10:07:11;;;;;;;;;56.75;45.75;;;;;;;;5059483;28;46879;-74
2022/05/08 10:15:24;;;;;;;;;49.75;40.00;;;;;;;;5042329;28;45581;-73
2022/05/08 10:17:49;;;;;;;;;54.00;40.75;;;;;;;;5054316;28;45329;-73
2022/05/08 10:20:14;;;;;;;;;49.50;39.50;;;;;;;;5060930;28;45757;-73
2022/05/08 10:22:47;;;;;;;;;50.25;40.25;;;;;;;;5058850;28;45374;-73
2022/05/08 10:25:15;;;;;;;;;56.00;45.50;;;;;;;;5059114;28;45463;-73
2022/05/08 10:27:40;;;;;;;;;58.00;44.25;;;;;;;;5058600;27;45296;-72
2022/05/08 10:30:05;;;;;;;;;48.75;40.25;;;;;;;;5056041;28;45355;-72
2022/05/08 10:32:33;;;;;;;;;50.00;38.50;;;;;;;;5058334;28;45346;-74
2022/05/08 10:35:11;;;;;;;;;50.25;37.50;;;;;;;;5059998;28;45365;-73
2022/05/08 10:37:40;;;;;;;;;51.50;40.50;;;;;;;;5056408;28;46222;-80
2022/05/08 10:40:23;;;;;;;;;54.00;42.25;;;;;;;;5059226;28;45341;-77
2022/05/08 10:42:49;;;;;;;;;54.75;44.25;;;;;;;;5059310;28;45380;-77
2022/05/08 10:45:30;;;;;;;;;44.75;37.25;;;;;;;;5057381;28;45396;-77
2022/05/08 10:47:55;;;;;;;;;58.50;43.75;;;;;;;;5039065;28;46311;-76
2022/05/08 10:50:20;;;;;;;;;45.50;38.00;;;;;;;;5076796;27;45342;-79
2022/05/08 10:52:46;;;;;;;;;52.50;43.25;;;;;;;;5059001;28;45384;-77
2022/05/08 10:55:14;;;;;;;;;52.25;41.50;;;;;;;;5058764;28;45375;-77
2022/05/08 10:57:41;;;;;;;;;54.50;40.50;;;;;;;;5058655;28;45526;-74
2022/05/08 11:00:07;;;;;;;;;52.75;41.75;;;;;;;;5055278;28;45468;-75
2022/05/08 11:02:39;;;;;;;;;47.00;39.75;;;;;;;;5056314;28;45265;-76
2022/05/08 11:05:05;;;;;;;;;40.75;37.75;;;;;;;;5059211;28;45651;-76
2022/05/08 11:07:30;;;;;;;;;49.75;40.50;;;;;;;;5059088;28;47012;-76
2022/05/08 11:09:55;;;;;;;;;51.75;42.00;;;;;;;;5057215;28;45340;-78
2022/05/08 11:12:20;;;;;;;;;46.00;38.50;;;;;;;;5058082;28;45285;-76
2022/05/08 11:14:46;;;;;;;;;45.50;37.25;;;;;;;;5054361;28;47939;-75
2022/05/08 11:17:19;;;;;;;;;49.50;41.25;;;;;;;;5060624;28;46255;-75
2022/05/08 11:19:51;;;;;;;;;53.75;42.75;;;;;;;;5058487;28;45550;-76
2022/05/08 11:22:16;;;;;;;;;56.75;44.50;;;;;;;;5062883;28;45350;-75
2022/05/08 11:24:42;;;;;;;;;49.25;37.75;;;;;;;;5058350;27;45506;-76
2022/05/08 11:27:12;;;;;;;;;45.75;38.75;;;;;;;;5055873;28;45998;-77
2022/05/08 11:29:37;;;;;;;;;41.50;34.25;;;;;;;;5055059;28;45400;-76
2022/05/08 11:38:03;;;;;;;;;51.00;38.00;;;;;;;;5053758;28;45869;-74
2022/05/08 11:40:29;;;;;;;;;41.25;35.25;;;;;;;;5057176;28;45488;-74
2022/05/08 11:42:55;;;;;;;;;46.50;38.75;;;;;;;;5056169;28;45249;-73
2022/05/08 11:45:20;;;;;;;;;46.50;36.50;;;;;;;;5057180;28;45324;-74
2022/05/08 11:47:53;;;;;;;;;38.00;34.00;;;;;;;;5054202;28;47395;-73
2022/05/08 11:50:19;;;;;;;;;46.00;37.00;;;;;;;;5060019;28;45362;-74
2022/05/08 11:52:44;;;;;;;;;39.00;33.25;;;;;;;;5039586;28;45457;-74
2022/05/08 11:55:09;;;;;;;;;42.50;36.50;;;;;;;;5057461;28;45447;-73
2022/05/08 11:57:42;;;;;;;;;40.25;36.00;;;;;;;;5057379;28;47262;-73
2022/05/08 12:00:11;;;;;;;;;45.75;36.25;;;;;;;;5054910;28;45606;-73
2022/05/08 12:02:38;;;;;;;;;45.25;37.50;;;;;;;;5037588;28;45363;-72
2022/05/08 12:05:03;;;;;;;;;40.75;33.25;;;;;;;;5058676;28;45299;-72
2022/05/08 12:07:37;;;;;;;;;33.75;31.25;;;;;;;;5057384;28;45411;-72
2022/05/08 12:10:02;;;;;;;;;42.75;35.75;;;;;;;;5057412;28;45526;-73
2022/05/08 12:12:27;;;;;;;;;41.00;35.75;;;;;;;;5056990;28;45472;-74
2022/05/08 12:15:06;;;;;;;;;32.00;30.75;;;;;;;;5035086;28;45381;-73
2022/05/08 12:17:50;;;;;;;;;39.00;34.25;;;;;;;;5067785;28;47829;-74
2022/05/08 12:20:19;;;;;;;;;41.00;36.00;;;;;;;;5041153;28;45361;-74
2022/05/08 12:22:44;;;;;;;;;34.50;32.00;;;;;;;;5057524;28;45381;-74
2022/05/08 12:25:11;;;;;;;;;31.50;30.50;;;;;;;;5056913;27;45425;-74
2022/05/08 12:27:36;;;;;;;;;36.50;33.00;;;;;;;;5057208;28;45538;-74
2022/05/08 12:30:02;;;;;;;;;36.25;30.50;;;;;;;;5054246;28;45335;-72
2022/05/08 12:32:28;;;;;;;;;35.50;30.25;;;;;;;;5058201;28;45348;-74
2022/05/08 12:34:54;;;;;;;;;34.25;31.25;;;;;;;;5057937;27;45701;-73
2022/05/08 12:37:20;;;;;;;;;34.25;30.25;;;;;;;;5056897;28;46311;-74
2022/05/08 12:39:46;;;;;;;;;34.75;30.25;;;;;;;;5056944;28;45428;-74
2022/05/08 12:42:11;;;;;;;;;39.00;33.25;;;;;;;;5049315;28;45550;-74
2022/05/08 12:44:37;;;;;;;;;36.50;30.25;;;;;;;;5042960;28;45517;-75
2022/05/08 12:47:06;;;;;;;;;33.25;28.75;;;;;;;;5058682;28;46478;-75
2022/05/08 12:49:31;;;;;;;;;28.50;28.50;;;;;;;;5056905;28;45320;-75
2022/05/08 12:51:56;;;;;;;;;33.25;30.75;;;;;;;;5040042;28;45457;-75
2022/05/08 12:54:22;;;;;;;;;34.50;27.00;;;;;;;;5057457;28;45417;-76
2022/05/08 12:56:47;;;;;;;;;30.50;28.25;;;;;;;;5070534;28;47186;-75
2022/05/08 13:01:56;;;;;;;;;31.50;25.50;;;;;;;;5055999;28;45340;-74
2022/05/08 13:04:22;;;;;;;;;26.75;24.00;;;;;;;;5056950;28;45316;-71
2022/05/08 13:06:47;;;;;;;;;23.25;20.00;;;;;;;;5056782;28;47020;-76
2022/05/08 13:09:13;;;;;;;;;21.75;18.75;;;;;;;;5057106;27;45598;-75
2022/05/08 13:11:38;;;;;;;;;23.25;22.75;;;;;;;;5055497;28;45324;-76
2022/05/08 13:14:04;;;;;;;;;26.00;26.00;;;;;;;;5061547;27;45463;-74
2022/05/08 13:16:29;;;;;;;;;22.25;20.00;;;;;;;;5060520;28;46062;-76
2022/05/08 13:18:55;;;;;;;;;18.00;17.75;;;;;;;;5060861;28;45467;-78
2022/05/08 13:21:20;;;;;;;;;23.25;20.25;;;;;;;;5059989;28;45322;-76
2022/05/08 13:23:46;;;;;;;;;22.75;21.75;;;;;;;;5056726;28;45469;-77
2022/05/08 13:26:11;;;;;;;;;20.25;19.25;;;;;;;;5061837;28;45324;-75
2022/05/08 13:28:36;;;;;;;;;18.50;18.50;;;;;;;;5065174;28;45483;-73
2022/05/08 13:31:04;;;;;;;;;21.75;18.25;;;;;;;;5067266;28;45414;-75
2022/05/08 13:33:29;;;;;;;;;18.75;17.75;;;;;;;;5057972;28;45484;-76
2022/05/08 13:35:54;;;;;;;;;18.50;17.25;;;;;;;;5055950;28;46306;-78
2022/05/08 13:38:24;;;;;;;;;20.25;17.50;;;;;;;;5052768;28;47043;-75
2022/05/08 13:40:49;;;;;;;;;18.25;18.25;;;;;;;;5061841;28;45553;-75
2022/05/08 13:43:15;;;;;;;;;18.25;16.25;;;;;;;;5061782;27;45432;-76
2022/05/08 13:45:41;;;;;;;;;17.75;17.25;;;;;;;;5063101;28;46154;-76
2022/05/08 13:48:06;;;;;;;;;16.25;14.50;;;;;;;;5066754;28;45471;-77
2022/05/08 13:50:31;;;;;;;;;12.75;11.75;;;;;;;;5058537;28;45399;-76
2022/05/08 13:52:57;;;;;;;;;13.50;13.50;;;;;;;;5059753;27;45305;-76
2022/05/08 13:55:22;;;;;;;;;16.00;13.50;;;;;;;;5058720;28;45449;-76
2022/05/08 13:57:49;;;;;;;;;15.00;13.75;;;;;;;;5058623;28;45257;-77
2022/05/08 14:00:15;;;;;;;;;10.25;9.25;;;;;;;;5071805;27;45446;-77
2022/05/08 14:02:42;;;;;;;;;12.50;10.25;;;;;;;;5068268;28;45637;-77
2022/05/08 14:05:07;;;;;;;;;10.75;10.75;;;;;;;;5071916;27;45941;-75
2022/05/08 14:07:35;;;;;;;;;12.00;12.00;;;;;;;;5061256;28;45206;-77
2022/05/08 14:10:00;;;;;;;;;12.00;11.25;;;;;;;;5059793;28;45595;-75
2022/05/08 14:12:26;;;;;;;;;14.00;13.00;;;;;;;;5058777;28;45407;-76
2022/05/08 14:14:51;;;;;;;;;13.33;9.33;;;;;;;;5055852;28;45407;-76
2022/05/08 14:17:17;;;;;;;;;10.00;8.25;;;;;;;;5061886;28;45460;-76
2022/05/08 14:19:42;;;;;;;;;8.50;8.25;;;;;;;;5059877;28;45611;-75
2022/05/08 14:22:07;;;;;;;;;12.50;11.25;;;;;;;;5059984;28;45565;-76
2022/05/08 14:24:34;;;;;;;;;11.50;11.00;;;;;;;;5059121;27;46016;-76
2022/05/08 14:27:00;;;;;;;;;12.25;10.50;;;;;;;;5055659;28;45550;-76
2022/05/08 14:29:26;;;;;;;;;13.25;11.25;;;;;;;;5059632;28;45359;-74
2022/05/08 14:37:19;;;;;;;;;11.50;8.50;;;;;;;;5049580;28;45928;-75
2022/05/08 14:39:44;;;;;;;;;8.25;8.25;;;;;;;;5055115;28;45379;-75
2022/05/08 14:42:10;;;;;;;;;9.50;9.50;;;;;;;;5055448;28;45430;-77
2022/05/08 14:44:35;;;;;;;;;10.00;10.00;;;;;;;;5047347;28;47137;-77
2022/05/08 14:47:00;;;;;;;;;12.50;10.75;;;;;;;;5053204;28;45444;-76
2022/05/08 14:49:25;;;;;;;;;10.75;9.75;;;;;;;;5052135;28;45463;-75
2022/05/08 14:51:50;;;;;;;;;12.25;11.25;;;;;;;;5052824;28;45299;-76